createdAt,value
2019-04-21T00:02:26.419Z,13.27
2019-04-21T00:07:31.853Z,12.30
2019-04-21T00:12:31.112Z,12.43
2019-04-21T00:17:12.458Z,11.70
2019-04-21T00:22:14.902Z,12.70
2019-04-21T00:27:18.800Z,12.73
2019-04-21T00:32:05.662Z,13.00
2019-04-21T00:36:59.645Z,12.43
2019-04-21T00:41:59.284Z,10.43
2019-04-21T00:46:55.835Z,11.77
2019-04-21T00:52:42.702Z,11.40
2019-04-21T00:57:25.130Z,11.60
2019-04-21T01:02:19.618Z,13.00
2019-04-21T01:07:13.271Z,12.43
2019-04-21T01:12:07.800Z,13.67
2019-04-21T01:17:07.156Z,13.00
2019-04-21T01:21:36.785Z,13.40
2019-04-21T01:26:42.801Z,14.07
2019-04-21T01:31:43.884Z,12.67
2019-04-21T01:36:40.057Z,12.83
2019-04-21T01:41:38.898Z,10.70
2019-04-21T01:46:30.894Z,13.53
2019-04-21T01:51:24.959Z,15.57
2019-04-21T01:56:46.486Z,12.30
2019-04-21T02:01:42.310Z,15.33
2019-04-21T02:06:42.662Z,13.80
2019-04-21T02:11:37.903Z,12.40
2019-04-21T02:16:32.740Z,11.57
2019-04-21T02:21:17.833Z,13.03
2019-04-21T02:26:22.965Z,13.27
2019-04-21T02:31:26.753Z,13.30
2019-04-21T02:36:31.014Z,12.07
2019-04-21T02:41:12.880Z,12.23
2019-04-21T02:46:16.778Z,12.40
2019-04-21T02:56:00.195Z,13.30
2019-04-21T03:01:29.157Z,12.70
2019-04-21T03:11:09.313Z,13.20
2019-04-21T03:21:10.932Z,13.63
2019-04-21T03:26:00.773Z,12.97
2019-04-21T03:36:13.308Z,16.57
2019-04-21T03:40:57.677Z,12.73
2019-04-21T03:50:37.197Z,14.63
2019-04-21T04:05:57.216Z,16.57
2019-04-21T04:10:50.369Z,16.37
2019-04-21T04:15:49.034Z,15.50
2019-04-21T04:25:29.134Z,14.13
2019-04-21T04:30:27.555Z,15.30
2019-04-21T04:35:29.817Z,13.70
2019-04-21T04:40:34.759Z,14.20
2019-04-21T04:45:32.350Z,18.10
2019-04-21T04:50:29.868Z,17.67
2019-04-21T04:55:18.662Z,16.30
2019-04-21T05:00:18.150Z,18.03
2019-04-21T05:05:13.806Z,13.77
2019-04-21T05:09:59.524Z,15.17
2019-04-21T05:15:04.474Z,14.30
2019-04-21T05:20:03.671Z,13.30
2019-04-21T05:24:39.046Z,16.30
2019-04-21T05:29:49.505Z,17.33
2019-04-21T05:34:41.229Z,14.77
2019-04-21T05:39:51.420Z,13.53
2019-04-21T05:49:49.922Z,15.57
2019-04-21T05:54:52.888Z,13.10
2019-04-21T05:59:48.020Z,13.37
2019-04-21T06:05:02.412Z,14.33
2019-04-21T06:09:35.205Z,13.63
2019-04-21T06:14:30.598Z,14.00
2019-04-21T06:19:34.498Z,13.80
2019-04-21T06:24:15.682Z,14.13
2019-04-21T06:29:15.237Z,13.67
2019-04-21T06:34:08.211Z,14.43
2019-04-21T06:44:05.103Z,13.10
2019-04-21T06:48:59.567Z,13.80
2019-04-21T06:54:00.766Z,13.20
2019-04-21T06:58:48.073Z,16.10
2019-04-21T07:03:42.187Z,12.90
2019-04-21T07:08:51.476Z,14.47
2019-04-21T07:13:34.657Z,14.73
2019-04-21T07:18:32.647Z,12.57
2019-04-21T07:23:25.291Z,14.07
2019-04-21T07:28:18.399Z,12.93
2019-04-21T07:33:43.735Z,14.83
2019-04-21T07:38:12.065Z,12.97
2019-04-21T07:43:01.329Z,12.83
2019-04-21T07:48:02.734Z,13.97
2019-04-21T07:53:08.275Z,13.90
2019-04-21T07:57:56.164Z,13.43
2019-04-21T08:02:58.362Z,12.27
2019-04-21T08:07:51.967Z,13.13
2019-04-21T08:12:42.592Z,12.33
2019-04-21T08:17:42.590Z,12.10
2019-04-21T08:22:43.257Z,13.07
2019-04-21T08:27:37.267Z,11.97
2019-04-21T08:32:40.940Z,13.93
2019-04-21T08:37:26.013Z,12.43
2019-04-21T08:42:18.199Z,10.63
2019-04-21T08:47:15.488Z,11.73
2019-04-21T08:52:15.281Z,11.30
2019-04-21T08:57:41.685Z,11.20
2019-04-21T09:02:41.510Z,10.80
2019-04-21T09:12:29.441Z,11.43
2019-04-21T09:17:22.411Z,12.43
2019-04-21T09:22:17.823Z,13.47
2019-04-21T09:27:10.179Z,13.37
2019-04-21T09:31:54.571Z,11.80
2019-04-21T09:36:51.223Z,11.43
2019-04-21T09:41:42.781Z,12.40
2019-04-21T09:46:41.818Z,10.93
2019-04-21T09:51:32.583Z,10.93
2019-04-21T09:56:36.093Z,12.63
2019-04-21T10:01:28.799Z,10.33
2019-04-21T10:06:18.758Z,11.40
2019-04-21T10:11:12.179Z,11.97
2019-04-21T10:16:32.120Z,11.67
2019-04-21T10:21:27.589Z,10.60
2019-04-21T10:26:22.127Z,11.40
2019-04-21T10:31:16.742Z,11.30
2019-04-21T10:36:11.037Z,11.43
2019-04-21T10:41:05.472Z,12.40
2019-04-21T10:45:59.045Z,9.80
2019-04-21T10:50:52.796Z,10.80
2019-04-21T10:55:59.939Z,10.97
2019-04-21T11:00:42.422Z,11.33
2019-04-21T11:05:36.765Z,9.87
2019-04-21T11:10:30.224Z,9.30
2019-04-21T11:15:23.689Z,7.57
2019-04-21T11:20:17.312Z,8.90
2019-04-21T11:25:11.218Z,7.80
2019-04-21T11:30:07.511Z,6.70
2019-04-21T11:35:01.253Z,7.13
2019-04-21T11:40:01.280Z,7.83
2019-04-21T11:44:51.434Z,6.97
2019-04-21T11:49:45.279Z,5.57
2019-04-21T11:54:38.834Z,6.60
2019-04-21T11:59:33.455Z,6.23
2019-04-21T12:04:27.537Z,7.23
2019-04-21T12:09:23.028Z,10.80
2019-04-21T12:14:16.529Z,7.90
2019-04-21T12:19:10.085Z,6.70
2019-04-21T12:24:03.639Z,7.83
2019-04-21T12:28:57.652Z,8.57
2019-04-21T12:33:58.055Z,6.90
2019-04-21T12:38:57.672Z,7.13
2019-04-21T12:43:46.856Z,7.07
2019-04-21T12:48:40.275Z,7.87
2019-04-21T12:53:33.972Z,6.93
2019-04-21T12:58:28.985Z,8.40
2019-04-21T13:03:24.775Z,6.47
2019-04-21T13:08:19.782Z,6.53
2019-04-21T13:13:14.394Z,7.20
2019-04-21T13:18:10.086Z,6.13
2019-04-21T13:23:03.889Z,6.50
2019-04-21T13:27:58.634Z,6.33
2019-04-21T13:32:53.424Z,5.23
2019-04-21T13:37:48.534Z,6.53
2019-04-21T13:42:49.539Z,7.23
2019-04-21T13:47:38.698Z,8.17
2019-04-21T13:52:33.199Z,8.63
2019-04-21T13:57:28.523Z,5.90
2019-04-21T14:02:22.758Z,5.77
2019-04-21T14:07:16.501Z,5.17
2019-04-21T14:12:11.770Z,5.63
2019-04-21T14:17:07.134Z,6.93
2019-04-21T14:22:03.451Z,6.40
2019-04-21T14:26:58.321Z,5.63
2019-04-21T14:31:52.870Z,4.97
2019-04-21T14:36:46.621Z,5.43
2019-04-21T14:41:40.453Z,7.50
2019-04-21T14:46:59.170Z,5.67
2019-04-21T14:51:56.945Z,5.80
2019-04-21T14:56:51.287Z,6.13
2019-04-21T15:01:46.242Z,6.07
2019-04-21T15:06:41.221Z,5.50
2019-04-21T15:11:35.929Z,5.57
2019-04-21T15:16:31.272Z,6.20
2019-04-21T15:21:25.811Z,6.53
2019-04-21T15:26:20.092Z,7.30
2019-04-21T15:31:21.651Z,6.40
2019-04-21T15:36:09.102Z,6.13
2019-04-21T15:41:06.657Z,7.87
2019-04-21T15:45:58.113Z,6.00
2019-04-21T15:50:51.828Z,6.47
2019-04-21T15:56:04.949Z,5.70
2019-04-21T16:01:07.264Z,6.23
2019-04-21T16:06:01.411Z,6.33
2019-04-21T16:10:59.520Z,6.57
2019-04-21T16:15:50.596Z,6.37
2019-04-21T16:20:44.196Z,7.40
2019-04-21T16:25:38.916Z,6.23
2019-04-21T16:30:34.105Z,6.47
2019-04-21T16:35:27.741Z,5.60
2019-04-21T16:40:23.407Z,5.67
2019-04-21T16:45:22.934Z,6.43
2019-04-21T16:50:19.493Z,5.47
2019-04-21T16:55:35.491Z,6.17
2019-04-21T17:00:36.469Z,9.17
2019-04-21T17:05:24.979Z,8.17
2019-04-21T17:10:18.430Z,5.37
2019-04-21T17:15:29.406Z,7.40
2019-04-21T17:20:19.231Z,5.40
2019-04-21T17:25:06.746Z,5.90
2019-04-21T17:30:01.215Z,9.17
2019-04-21T17:34:56.124Z,7.00
2019-04-21T17:39:50.011Z,6.03
2019-04-21T17:44:43.394Z,5.73
2019-04-21T17:49:37.132Z,5.20
2019-04-21T17:54:41.695Z,8.87
2019-04-21T17:59:58.851Z,6.10
2019-04-21T18:04:49.410Z,5.73
2019-04-21T18:09:47.084Z,7.87
2019-04-21T18:14:15.929Z,6.87
2019-04-21T18:19:11.023Z,8.33
2019-04-21T18:24:13.182Z,8.30
2019-04-21T18:29:01.527Z,8.30
2019-04-21T18:34:12.744Z,9.50
2019-04-21T18:39:46.491Z,7.63
2019-04-21T18:45:41.729Z,8.07
2019-04-21T18:50:21.992Z,8.17
2019-04-21T18:55:25.218Z,6.40
2019-04-21T19:00:17.856Z,6.70
2019-04-21T19:05:13.340Z,7.63
2019-04-21T19:15:18.351Z,10.60
2019-04-21T19:20:11.783Z,7.97
2019-04-21T19:25:08.489Z,9.40
2019-04-21T19:30:17.696Z,7.50
2019-04-21T19:34:43.059Z,7.03
2019-04-21T19:39:50.814Z,7.90
2019-04-21T19:44:47.236Z,9.80
2019-04-21T19:49:49.670Z,8.40
2019-04-21T19:54:29.967Z,8.33
2019-04-21T20:11:37.201Z,10.30
2019-04-21T20:16:37.803Z,12.77
2019-04-21T20:21:14.228Z,11.77
2019-04-21T20:26:10.092Z,12.87
2019-04-21T20:31:23.425Z,12.17
2019-04-21T20:36:23.896Z,12.67
2019-04-21T20:41:10.666Z,16.83
2019-04-21T20:46:07.676Z,14.90
2019-04-21T20:51:06.103Z,13.17
2019-04-21T20:55:57.403Z,11.37
2019-04-21T21:01:06.281Z,17.87
2019-04-21T21:05:45.003Z,11.13
2019-04-21T21:10:38.862Z,15.43
2019-04-21T21:15:50.146Z,11.97
2019-04-21T21:20:35.786Z,12.97
2019-04-21T21:25:39.860Z,15.37
2019-04-21T21:30:26.901Z,14.70
2019-04-21T21:35:21.783Z,15.83
2019-04-21T21:40:26.727Z,18.27
2019-04-21T21:45:08.361Z,15.63
2019-04-21T21:50:07.268Z,16.23
2019-04-21T21:54:53.872Z,15.23
2019-04-21T21:59:54.301Z,12.03
2019-04-21T22:04:50.975Z,14.50
2019-04-21T22:09:40.007Z,13.87
2019-04-21T22:14:40.785Z,13.10
2019-04-21T22:19:54.085Z,15.37
2019-04-21T22:24:48.314Z,15.37
2019-04-21T22:29:27.900Z,17.33
2019-04-21T22:34:27.702Z,12.90
2019-04-21T22:39:36.233Z,10.93
2019-04-21T22:44:16.872Z,8.00
2019-04-21T22:49:12.569Z,9.00
2019-04-21T22:54:13.961Z,10.03
2019-04-21T22:59:10.983Z,8.83
2019-04-21T23:04:03.260Z,7.40
2019-04-21T23:08:57.171Z,9.13
2019-04-21T23:13:57.842Z,7.20
2019-04-21T23:19:07.508Z,9.33
2019-04-21T23:24:00.377Z,9.33
2019-04-21T23:28:58.519Z,7.33
2019-04-21T23:33:34.753Z,10.83
2019-04-21T23:38:36.824Z,8.03
2019-04-21T23:43:29.196Z,7.93
2019-04-21T23:48:35.189Z,8.83
2019-04-21T23:53:17.374Z,8.43
2019-04-21T23:58:18.672Z,10.63
